PWSweather.com
Personal Weather Stations
Station Observations
WAIROAHB
Wairoa, Northern Hawkes Bay -NZ 4108

WairoaNorthern Hawkes Bay -NZ 4108

Lat: -39.04516934, Lon: 177.4263989

Elevation: 156

Station Type: WS3083

http://wairoa.net/weather/index.htm

High Low Average
Temperature 76.1°F24.5°C 59.7°F15.4°C 65.0°F18.3°C
Dew Point 64.2°F17.9°C 57.1°F13.9°C 60.2°F15.7°C
Winds 12.1 mph 19.5 kmh Calm Calm 4.0 mph SSW6.4 kmh SSW
Wind Gusts 15.9 mph25.6 kmh 1.6 mph2.6 kmh 8.0 mph12.9 kmh
Humidity 99% 54% 85%
Pressure 29.62 in1003.0 mb 29.47 in998.0 mb -
Precipitation 0.20 in5.1 mm - -
Hour Temp Dew Point Humidity Winds Wind Gusts Pressure Precip Precip Rate Daily Precip Total
12:00 AM 64.8°F18.2°C 59.2°F15.1°C 82% 1.6 mph NNE2.6 kmh NNE 3.8 mph6.1 kmh 29.62 in1003.0 mb 0.00 in0.0 mm 0.00 in0.0 mm 0.00 in0.0 mm
12:10 AM 64.6°F18.1°C 59.0°F15.0°C 82% 1.6 mph N2.6 kmh N 3.8 mph6.1 kmh 29.62 in1003.0 mb 0.00 in0.0 mm 0.00 in0.0 mm 0.00 in0.0 mm
12:20 AM 64.8°F18.2°C 59.2°F15.1°C 82% 2.2 mph NNW3.5 kmh NNW 5.4 mph8.7 kmh 29.61 in1002.7 mb 0.00 in0.0 mm 0.00 in0.0 mm 0.00 in0.0 mm
12:30 AM 64.8°F18.2°C 59.2°F15.1°C 82% 2.2 mph N3.5 kmh N 5.4 mph8.7 kmh 29.61 in1002.7 mb 0.00 in0.0 mm 0.00 in0.0 mm 0.00 in0.0 mm
12:40 AM 64.8°F18.2°C 59.2°F15.1°C 82% 3.1 mph N5.0 kmh N 6.9 mph11.1 kmh 29.61 in1002.7 mb 0.00 in0.0 mm 0.00 in0.0 mm 0.00 in0.0 mm
12:50 AM 64.8°F18.2°C 58.8°F14.9°C 81% 2.2 mph N3.5 kmh N 6.9 mph11.1 kmh 29.60 in1002.4 mb 0.00 in0.0 mm 0.00 in0.0 mm 0.00 in0.0 mm
01:00 AM 64.6°F18.1°C 58.3°F14.6°C 80% 1.6 mph NNW2.6 kmh NNW 5.4 mph8.7 kmh 29.60 in1002.4 mb 0.00 in0.0 mm 0.00 in0.0 mm 0.00 in0.0 mm
01:10 AM 64.6°F18.1°C 58.6°F14.8°C 81% 2.2 mph NNW3.5 kmh NNW 5.4 mph8.7 kmh 29.60 in1002.4 mb 0.00 in0.0 mm 0.00 in0.0 mm 0.00 in0.0 mm
01:20 AM 64.6°F18.1°C 58.6°F14.8°C 81% 1.6 mph NNE2.6 kmh NNE 4.5 mph7.2 kmh 29.58 in1001.7 mb 0.00 in0.0 mm 0.00 in0.0 mm 0.00 in0.0 mm
01:30 AM 64.4°F18.0°C 58.5°F14.7°C 81% 1.6 mph NNW2.6 kmh NNW 3.8 mph6.1 kmh 29.59 in1002.0 mb 0.00 in0.0 mm 0.00 in0.0 mm 0.00 in0.0 mm
01:40 AM 64.2°F17.9°C 58.6°F14.8°C 82% 1.6 mph N2.6 kmh N 3.8 mph6.1 kmh 29.59 in1002.0 mb 0.00 in0.0 mm 0.00 in0.0 mm 0.00 in0.0 mm
01:50 AM 64.2°F17.9°C 58.6°F14.8°C 82% 2.2 mph N3.5 kmh N 3.8 mph6.1 kmh 29.57 in1001.4 mb 0.00 in0.0 mm 0.00 in0.0 mm 0.00 in0.0 mm
02:00 AM 64.0°F17.8°C 58.5°F14.7°C 82% Calm Calm 2.2 mph3.5 kmh 29.57 in1001.4 mb 0.00 in0.0 mm 0.00 in0.0 mm 0.00 in0.0 mm
02:10 AM 64.0°F17.8°C 58.5°F14.7°C 82% 2.2 mph NW3.5 kmh NW 3.8 mph6.1 kmh 29.57 in1001.4 mb 0.00 in0.0 mm 0.00 in0.0 mm 0.00 in0.0 mm
02:20 AM 63.3°F17.4°C 58.4°F14.7°C 84% 2.2 mph NW3.5 kmh NW 4.5 mph7.2 kmh 29.57 in1001.4 mb 0.00 in0.0 mm 0.00 in0.0 mm 0.00 in0.0 mm
02:30 AM 62.8°F17.1°C 58.5°F14.7°C 86% 1.6 mph NNW2.6 kmh NNW 4.5 mph7.2 kmh 29.57 in1001.4 mb 0.00 in0.0 mm 0.00 in0.0 mm 0.00 in0.0 mm
02:40 AM 62.6°F17.0°C 58.4°F14.7°C 86% 2.2 mph N3.5 kmh N 3.8 mph6.1 kmh 29.56 in1001.0 mb 0.00 in0.0 mm 0.00 in0.0 mm 0.00 in0.0 mm
02:50 AM 62.6°F17.0°C 58.4°F14.7°C 86% 3.1 mph NNW5.0 kmh NNW 5.4 mph8.7 kmh 29.56 in1001.0 mb 0.00 in0.0 mm 0.00 in0.0 mm 0.00 in0.0 mm
03:00 AM 62.4°F16.9°C 58.5°F14.7°C 87% 2.2 mph N3.5 kmh N 6.0 mph9.7 kmh 29.56 in1001.0 mb 0.00 in0.0 mm 0.00 in0.0 mm 0.00 in0.0 mm
03:10 AM 62.4°F16.9°C 58.8°F14.9°C 88% 1.6 mph NNW2.6 kmh NNW 3.8 mph6.1 kmh 29.55 in1000.7 mb 0.00 in0.0 mm 0.00 in0.0 mm 0.00 in0.0 mm
03:20 AM 62.4°F16.9°C 58.8°F14.9°C 88% Calm Calm 3.8 mph6.1 kmh 29.55 in1000.7 mb 0.00 in0.0 mm 0.00 in0.0 mm 0.00 in0.0 mm
03:30 AM 62.2°F16.8°C 58.7°F14.8°C 88% Calm Calm 1.6 mph2.6 kmh 29.54 in1000.3 mb 0.00 in0.0 mm 0.00 in0.0 mm 0.00 in0.0 mm
03:40 AM 62.2°F16.8°C 58.7°F14.8°C 88% 1.6 mph N2.6 kmh N 2.2 mph3.5 kmh 29.54 in1000.3 mb 0.00 in0.0 mm 0.00 in0.0 mm 0.00 in0.0 mm
03:50 AM 62.4°F16.9°C 59.2°F15.1°C 89% 1.6 mph NW2.6 kmh NW 3.8 mph6.1 kmh 29.54 in1000.3 mb 0.00 in0.0 mm 0.00 in0.0 mm 0.00 in0.0 mm
04:00 AM 62.4°F16.9°C 59.2°F15.1°C 89% 2.2 mph NW3.5 kmh NW 3.8 mph6.1 kmh 29.54 in1000.3 mb 0.00 in0.0 mm 0.00 in0.0 mm 0.00 in0.0 mm
04:10 AM 62.2°F16.8°C 59.0°F15.0°C 89% 1.6 mph NW2.6 kmh NW 3.8 mph6.1 kmh 29.54 in1000.3 mb 0.00 in0.0 mm 0.00 in0.0 mm 0.00 in0.0 mm
04:20 AM 62.6°F17.0°C 59.0°F15.0°C 88% 2.2 mph NW3.5 kmh NW 6.0 mph9.7 kmh 29.54 in1000.3 mb 0.00 in0.0 mm 0.00 in0.0 mm 0.00 in0.0 mm
04:30 AM 63.0°F17.2°C 58.7°F14.8°C 86% 3.1 mph NNW5.0 kmh NNW 5.4 mph8.7 kmh 29.54 in1000.3 mb 0.00 in0.0 mm 0.00 in0.0 mm 0.00 in0.0 mm
04:40 AM 63.1°F17.3°C 58.6°F14.8°C 85% 2.2 mph NNW3.5 kmh NNW 6.0 mph9.7 kmh 29.54 in1000.3 mb 0.00 in0.0 mm 0.00 in0.0 mm 0.00 in0.0 mm
04:50 AM 63.1°F17.3°C 58.9°F14.9°C 86% 3.1 mph NW5.0 kmh NW 4.5 mph7.2 kmh 29.54 in1000.3 mb 0.00 in0.0 mm 0.00 in0.0 mm 0.00 in0.0 mm
05:00 AM 63.0°F17.2°C 59.0°F15.0°C 87% 3.8 mph N6.1 kmh N 5.4 mph8.7 kmh 29.54 in1000.3 mb 0.00 in0.0 mm 0.00 in0.0 mm 0.00 in0.0 mm
05:10 AM 63.1°F17.3°C 58.9°F14.9°C 86% 3.8 mph N6.1 kmh N 6.9 mph11.1 kmh 29.54 in1000.3 mb 0.00 in0.0 mm 0.00 in0.0 mm 0.00 in0.0 mm
05:20 AM 63.7°F17.6°C 58.8°F14.9°C 84% 2.2 mph N3.5 kmh N 6.0 mph9.7 kmh 29.54 in1000.3 mb 0.00 in0.0 mm 0.00 in0.0 mm 0.00 in0.0 mm
05:30 AM 64.0°F17.8°C 58.8°F14.9°C 83% 2.2 mph N3.5 kmh N 6.0 mph9.7 kmh 29.54 in1000.3 mb 0.00 in0.0 mm 0.00 in0.0 mm 0.00 in0.0 mm
05:40 AM 63.9°F17.7°C 58.6°F14.8°C 83% 2.2 mph N3.5 kmh N 5.4 mph8.7 kmh 29.54 in1000.3 mb 0.00 in0.0 mm 0.00 in0.0 mm 0.00 in0.0 mm
05:50 AM 63.5°F17.5°C 58.9°F14.9°C 85% 3.8 mph N6.1 kmh N 5.4 mph8.7 kmh 29.54 in1000.3 mb 0.00 in0.0 mm 0.00 in0.0 mm 0.00 in0.0 mm
06:00 AM 62.8°F17.1°C 59.2°F15.1°C 88% 2.2 mph NNW3.5 kmh NNW 5.4 mph8.7 kmh 29.54 in1000.3 mb 0.00 in0.0 mm 0.00 in0.0 mm 0.00 in0.0 mm
06:10 AM 62.4°F16.9°C 59.8°F15.4°C 91% 3.8 mph N6.1 kmh N 6.9 mph11.1 kmh 29.54 in1000.3 mb 0.00 in0.0 mm 0.00 in0.0 mm 0.00 in0.0 mm
06:20 AM 62.1°F16.7°C 60.0°F15.6°C 93% 5.4 mph NNE8.7 kmh NNE 8.3 mph13.4 kmh 29.54 in1000.3 mb 0.00 in0.0 mm 0.00 in0.0 mm 0.00 in0.0 mm
06:30 AM 61.9°F16.6°C 59.9°F15.5°C 93% 3.8 mph N6.1 kmh N 8.3 mph13.4 kmh 29.54 in1000.3 mb 0.00 in0.0 mm 0.00 in0.0 mm 0.00 in0.0 mm
06:40 AM 61.7°F16.5°C 60.0°F15.6°C 94% 3.8 mph N6.1 kmh N 9.2 mph14.8 kmh 29.55 in1000.7 mb 0.00 in0.0 mm 0.00 in0.0 mm 0.00 in0.0 mm
06:50 AM 61.7°F16.5°C 60.0°F15.6°C 94% 3.1 mph N5.0 kmh N 6.0 mph9.7 kmh 29.55 in1000.7 mb 0.00 in0.0 mm 0.00 in0.0 mm 0.00 in0.0 mm
07:00 AM 61.9°F16.6°C 60.5°F15.8°C 95% 3.1 mph N5.0 kmh N 6.0 mph9.7 kmh 29.55 in1000.7 mb 0.00 in0.0 mm 0.00 in0.0 mm 0.00 in0.0 mm
07:10 AM 61.9°F16.6°C 60.5°F15.8°C 95% 2.2 mph N3.5 kmh N 6.0 mph9.7 kmh 29.55 in1000.7 mb 0.00 in0.0 mm 0.00 in0.0 mm 0.00 in0.0 mm
07:20 AM 61.9°F16.6°C 60.2°F15.7°C 94% 3.8 mph N6.1 kmh N 8.3 mph13.4 kmh 29.55 in1000.7 mb 0.00 in0.0 mm 0.00 in0.0 mm 0.00 in0.0 mm
07:30 AM 62.2°F16.8°C 60.5°F15.8°C 94% 3.1 mph NNE5.0 kmh NNE 8.3 mph13.4 kmh 29.55 in1000.7 mb 0.00 in0.0 mm 0.00 in0.0 mm 0.00 in0.0 mm
07:40 AM 62.6°F17.0°C 60.0°F15.6°C 91% 5.4 mph NNE8.7 kmh NNE 8.3 mph13.4 kmh 29.55 in1000.7 mb 0.00 in0.0 mm 0.00 in0.0 mm 0.00 in0.0 mm
07:50 AM 63.0°F17.2°C 60.0°F15.6°C 90% 2.2 mph N3.5 kmh N 8.3 mph13.4 kmh 29.54 in1000.3 mb 0.00 in0.0 mm 0.00 in0.0 mm 0.01 in0.3 mm
08:00 AM 63.1°F17.3°C 60.2°F15.7°C 90% 3.8 mph NE6.1 kmh NE 8.3 mph13.4 kmh 29.53 in1000.0 mb 0.00 in0.0 mm 0.00 in0.0 mm 0.01 in0.3 mm
08:10 AM 63.7°F17.6°C 60.1°F15.6°C 88% 3.8 mph NNE6.1 kmh NNE 8.3 mph13.4 kmh 29.52 in999.7 mb 0.00 in0.0 mm 0.00 in0.0 mm 0.01 in0.3 mm
08:20 AM 64.6°F18.1°C 60.6°F15.9°C 87% 3.1 mph NE5.0 kmh NE 8.3 mph13.4 kmh 29.52 in999.7 mb 0.00 in0.0 mm 0.00 in0.0 mm 0.01 in0.3 mm
08:30 AM 65.8°F18.8°C 61.2°F16.2°C 85% 2.2 mph N3.5 kmh N 9.2 mph14.8 kmh 29.53 in1000.0 mb 0.00 in0.0 mm 0.00 in0.0 mm 0.01 in0.3 mm
08:40 AM 66.0°F18.9°C 60.7°F15.9°C 83% 3.8 mph NNW6.1 kmh NNW 6.9 mph11.1 kmh 29.53 in1000.0 mb 0.00 in0.0 mm 0.00 in0.0 mm 0.01 in0.3 mm
08:50 AM 66.4°F19.1°C 61.1°F16.2°C 83% 5.4 mph N8.7 kmh N 6.0 mph9.7 kmh 29.53 in1000.0 mb 0.00 in0.0 mm 0.00 in0.0 mm 0.01 in0.3 mm
09:00 AM 67.1°F19.5°C 61.4°F16.3°C 82% 2.2 mph NNE3.5 kmh NNE 4.5 mph7.2 kmh 29.53 in1000.0 mb 0.00 in0.0 mm 0.00 in0.0 mm 0.01 in0.3 mm
09:10 AM 67.1°F19.5°C 60.4°F15.8°C 79% 2.2 mph NNE3.5 kmh NNE 5.4 mph8.7 kmh 29.52 in999.7 mb 0.00 in0.0 mm 0.00 in0.0 mm 0.01 in0.3 mm
09:20 AM 67.6°F19.8°C 61.6°F16.4°C 81% 1.6 mph NNW2.6 kmh NNW 3.8 mph6.1 kmh 29.53 in1000.0 mb 0.00 in0.0 mm 0.00 in0.0 mm 0.01 in0.3 mm
09:30 AM 67.8°F19.9°C 60.7°F15.9°C 78% 3.1 mph N5.0 kmh N 5.4 mph8.7 kmh 29.53 in1000.0 mb 0.00 in0.0 mm 0.00 in0.0 mm 0.01 in0.3 mm
09:40 AM 67.8°F19.9°C 61.4°F16.3°C 80% 2.2 mph N3.5 kmh N 5.4 mph8.7 kmh 29.53 in1000.0 mb 0.00 in0.0 mm 0.00 in0.0 mm 0.01 in0.3 mm
09:50 AM 68.5°F20.3°C 61.8°F16.6°C 79% 2.2 mph N3.5 kmh N 5.4 mph8.7 kmh 29.53 in1000.0 mb 0.00 in0.0 mm 0.00 in0.0 mm 0.01 in0.3 mm
10:00 AM 71.8°F22.1°C 63.5°F17.5°C 75% 3.1 mph NNE5.0 kmh NNE 4.5 mph7.2 kmh 29.53 in1000.0 mb 0.01 in0.3 mm 0.01 in0.3 mm 0.02 in0.5 mm
10:10 AM 71.6°F22.0°C 61.7°F16.5°C 71% 3.1 mph NNE5.0 kmh NNE 5.4 mph8.7 kmh 29.53 in1000.0 mb 0.01 in0.3 mm 0.00 in0.0 mm 0.02 in0.5 mm
10:20 AM 70.9°F21.6°C 61.8°F16.6°C 73% 2.2 mph NNW3.5 kmh NNW 5.4 mph8.7 kmh 29.52 in999.7 mb 0.01 in0.3 mm 0.00 in0.0 mm 0.02 in0.5 mm
10:30 AM 71.6°F22.0°C 62.1°F16.7°C 72% Calm Calm 4.5 mph7.2 kmh 29.52 in999.7 mb 0.01 in0.3 mm 0.00 in0.0 mm 0.02 in0.5 mm
10:40 AM 73.8°F23.2°C 63.0°F17.2°C 69% 1.6 mph WNW2.6 kmh WNW 3.8 mph6.1 kmh 29.52 in999.7 mb 0.01 in0.3 mm 0.00 in0.0 mm 0.02 in0.5 mm
10:50 AM 72.0°F22.2°C 60.9°F16.1°C 68% 0.7 mph NNW1.1 kmh NNW 5.4 mph8.7 kmh 29.52 in999.7 mb 0.00 in0.0 mm 0.00 in0.0 mm 0.02 in0.5 mm
11:00 AM 72.5°F22.5°C 61.0°F16.1°C 67% 0.7 mph NNW1.1 kmh NNW 6.9 mph11.1 kmh 29.52 in999.7 mb 0.00 in0.0 mm 0.00 in0.0 mm 0.02 in0.5 mm
11:10 AM 74.8°F23.8°C 61.4°F16.3°C 63% 3.8 mph NW6.1 kmh NW 6.0 mph9.7 kmh 29.52 in999.7 mb 0.00 in0.0 mm 0.00 in0.0 mm 0.02 in0.5 mm
11:20 AM 73.8°F23.2°C 58.1°F14.5°C 58% 3.8 mph W6.1 kmh W 12.1 mph19.5 kmh 29.52 in999.7 mb 0.00 in0.0 mm 0.00 in0.0 mm 0.02 in0.5 mm
11:30 AM 73.8°F23.2°C 57.1°F13.9°C 56% 6.0 mph NW9.7 kmh NW 10.7 mph17.2 kmh 29.52 in999.7 mb 0.00 in0.0 mm 0.00 in0.0 mm 0.02 in0.5 mm
11:40 AM 73.2°F22.9°C 57.1°F13.9°C 57% 4.5 mph NW7.2 kmh NW 12.1 mph19.5 kmh 29.52 in999.7 mb 0.00 in0.0 mm 0.00 in0.0 mm 0.02 in0.5 mm
11:50 AM 73.6°F23.1°C 57.4°F14.1°C 57% 3.1 mph W5.0 kmh W 11.4 mph18.3 kmh 29.51 in999.3 mb 0.00 in0.0 mm 0.00 in0.0 mm 0.02 in0.5 mm
12:00 PM 75.2°F24.0°C 58.0°F14.4°C 55% 6.0 mph W9.7 kmh W 9.8 mph15.8 kmh 29.51 in999.3 mb 0.00 in0.0 mm 0.00 in0.0 mm 0.02 in0.5 mm
12:10 PM 75.4°F24.1°C 57.6°F14.2°C 54% 5.4 mph WNW8.7 kmh WNW 9.8 mph15.8 kmh 29.50 in999.0 mb 0.00 in0.0 mm 0.00 in0.0 mm 0.02 in0.5 mm
12:20 PM 76.1°F24.5°C 58.3°F14.6°C 54% 2.2 mph NW3.5 kmh NW 9.8 mph15.8 kmh 29.50 in999.0 mb 0.00 in0.0 mm 0.00 in0.0 mm 0.02 in0.5 mm
12:30 PM 74.5°F23.6°C 59.2°F15.1°C 59% 7.6 mph WSW12.2 kmh WSW 13.0 mph20.9 kmh 29.50 in999.0 mb 0.00 in0.0 mm 0.00 in0.0 mm 0.02 in0.5 mm
12:40 PM 70.9°F21.6°C 61.4°F16.3°C 72% 6.0 mph W9.7 kmh W 11.4 mph18.3 kmh 29.50 in999.0 mb 0.00 in0.0 mm 0.00 in0.0 mm 0.02 in0.5 mm
12:50 PM 70.9°F21.6°C 60.6°F15.9°C 70% 6.0 mph WSW9.7 kmh WSW 8.3 mph13.4 kmh 29.50 in999.0 mb 0.00 in0.0 mm 0.00 in0.0 mm 0.02 in0.5 mm
01:00 PM 74.1°F23.4°C 61.6°F16.4°C 65% 6.9 mph N11.1 kmh N 11.4 mph18.3 kmh 29.49 in998.6 mb 0.00 in0.0 mm 0.00 in0.0 mm 0.02 in0.5 mm
01:10 PM 74.3°F23.5°C 60.5°F15.8°C 62% 7.6 mph S12.2 kmh S 13.6 mph21.9 kmh 29.49 in998.6 mb 0.00 in0.0 mm 0.00 in0.0 mm 0.02 in0.5 mm
01:20 PM 73.8°F23.2°C 60.0°F15.6°C 62% 10.7 mph W17.2 kmh W 13.6 mph21.9 kmh 29.48 in998.3 mb 0.00 in0.0 mm 0.00 in0.0 mm 0.02 in0.5 mm
01:30 PM 73.8°F23.2°C 60.4°F15.8°C 63% 12.1 mph WSW19.5 kmh WSW 14.5 mph23.3 kmh 29.48 in998.3 mb 0.00 in0.0 mm 0.00 in0.0 mm 0.02 in0.5 mm
01:40 PM 72.1°F22.3°C 61.4°F16.3°C 69% 8.3 mph W13.4 kmh W 13.6 mph21.9 kmh 29.48 in998.3 mb 0.00 in0.0 mm 0.00 in0.0 mm 0.02 in0.5 mm
01:50 PM 71.4°F21.9°C 63.1°F17.3°C 75% 7.6 mph W12.2 kmh W 15.2 mph24.5 kmh 29.48 in998.3 mb 0.00 in0.0 mm 0.00 in0.0 mm 0.02 in0.5 mm
02:00 PM 70.7°F21.5°C 62.4°F16.9°C 75% 5.4 mph W8.7 kmh W 11.4 mph18.3 kmh 29.48 in998.3 mb 0.00 in0.0 mm 0.00 in0.0 mm 0.02 in0.5 mm
02:10 PM 70.5°F21.4°C 62.2°F16.8°C 75% 3.8 mph SE6.1 kmh SE 10.7 mph17.2 kmh 29.49 in998.6 mb 0.01 in0.3 mm 0.06 in1.5 mm 0.04 in1.0 mm
02:20 PM 69.1°F20.6°C 64.1°F17.8°C 84% 3.1 mph NE5.0 kmh NE 10.7 mph17.2 kmh 29.48 in998.3 mb 0.01 in0.3 mm 0.00 in0.0 mm 0.04 in1.0 mm
02:30 PM 69.3°F20.7°C 64.2°F17.9°C 84% 4.5 mph SE7.2 kmh SE 9.8 mph15.8 kmh 29.47 in998.0 mb 0.01 in0.3 mm 0.00 in0.0 mm 0.04 in1.0 mm
02:40 PM 68.7°F20.4°C 63.7°F17.6°C 84% 6.0 mph SE9.7 kmh SE 11.4 mph18.3 kmh 29.47 in998.0 mb 0.01 in0.3 mm 0.00 in0.0 mm 0.04 in1.0 mm
02:50 PM 68.4°F20.2°C 63.7°F17.6°C 85% 5.4 mph ESE8.7 kmh ESE 11.4 mph18.3 kmh 29.48 in998.3 mb 0.01 in0.3 mm 0.00 in0.0 mm 0.04 in1.0 mm
03:00 PM 67.5°F19.7°C 63.5°F17.5°C 87% 3.1 mph SE5.0 kmh SE 10.7 mph17.2 kmh 29.48 in998.3 mb 0.01 in0.3 mm 0.00 in0.0 mm 0.04 in1.0 mm
03:10 PM 65.8°F18.8°C 62.8°F17.1°C 90% 5.4 mph WSW8.7 kmh WSW 14.5 mph23.3 kmh 29.49 in998.6 mb 0.00 in0.0 mm 0.00 in0.0 mm 0.04 in1.0 mm
03:20 PM 63.0°F17.2°C 59.4°F15.2°C 88% 3.1 mph WSW5.0 kmh WSW 14.5 mph23.3 kmh 29.51 in999.3 mb 0.02 in0.5 mm 0.12 in3.0 mm 0.06 in1.5 mm
03:30 PM 62.4°F16.9°C 60.4°F15.8°C 93% 5.4 mph SW8.7 kmh SW 9.8 mph15.8 kmh 29.51 in999.3 mb 0.05 in1.3 mm 0.18 in4.6 mm 0.08 in2.0 mm
03:40 PM 62.6°F17.0°C 61.8°F16.6°C 97% 8.3 mph S13.4 kmh S 13.6 mph21.9 kmh 29.48 in998.3 mb 0.07 in1.8 mm 0.12 in3.0 mm 0.11 in2.8 mm
03:50 PM 62.8°F17.1°C 61.9°F16.6°C 97% 6.0 mph SW9.7 kmh SW 13.0 mph20.9 kmh 29.49 in998.6 mb 0.07 in1.8 mm 0.00 in0.0 mm 0.11 in2.8 mm
04:00 PM 64.8°F18.2°C 63.6°F17.6°C 96% 6.9 mph W11.1 kmh W 12.1 mph19.5 kmh 29.50 in999.0 mb 0.07 in1.8 mm 0.00 in0.0 mm 0.11 in2.8 mm
04:30 PM 64.6°F18.1°C 61.9°F16.6°C 91% 4.5 mph WNW7.2 kmh WNW 13.6 mph21.9 kmh 29.50 in999.0 mb 0.02 in0.5 mm 0.00 in0.0 mm 0.11 in2.8 mm
04:40 PM 65.1°F18.4°C 63.1°F17.3°C 93% 5.4 mph SW8.7 kmh SW 13.0 mph20.9 kmh 29.50 in999.0 mb 0.00 in0.0 mm 0.00 in0.0 mm 0.11 in2.8 mm
04:50 PM 65.8°F18.8°C 62.8°F17.1°C 90% 6.9 mph SSE11.1 kmh SSE 10.7 mph17.2 kmh 29.50 in999.0 mb 0.00 in0.0 mm 0.00 in0.0 mm 0.11 in2.8 mm
05:00 PM 64.6°F18.1°C 61.9°F16.6°C 91% 3.8 mph SE6.1 kmh SE 12.1 mph19.5 kmh 29.50 in999.0 mb 0.00 in0.0 mm 0.00 in0.0 mm 0.11 in2.8 mm
05:20 PM 64.0°F17.8°C 61.4°F16.3°C 91% 4.5 mph SE7.2 kmh SE 6.9 mph11.1 kmh 29.50 in999.0 mb 0.00 in0.0 mm 0.00 in0.0 mm 0.11 in2.8 mm
05:40 PM 64.0°F17.8°C 61.4°F16.3°C 91% 6.0 mph SW9.7 kmh SW 13.0 mph20.9 kmh 29.51 in999.3 mb 0.00 in0.0 mm 0.00 in0.0 mm 0.11 in2.8 mm
05:50 PM 63.9°F17.7°C 61.5°F16.4°C 92% 7.6 mph S12.2 kmh S 12.1 mph19.5 kmh 29.51 in999.3 mb 0.00 in0.0 mm 0.00 in0.0 mm 0.11 in2.8 mm
06:00 PM 63.3°F17.4°C 61.0°F16.1°C 92% 9.8 mph SSE15.8 kmh SSE 15.9 mph25.6 kmh 29.52 in999.7 mb 0.00 in0.0 mm 0.00 in0.0 mm 0.11 in2.8 mm
06:10 PM 63.1°F17.3°C 60.8°F16.0°C 92% 5.4 mph NE8.7 kmh NE 13.6 mph21.9 kmh 29.52 in999.7 mb 0.00 in0.0 mm 0.00 in0.0 mm 0.11 in2.8 mm
06:20 PM 63.0°F17.2°C 60.9°F16.1°C 93% 3.8 mph WNW6.1 kmh WNW 9.8 mph15.8 kmh 29.52 in999.7 mb 0.00 in0.0 mm 0.00 in0.0 mm 0.11 in2.8 mm
06:30 PM 62.8°F17.1°C 60.7°F15.9°C 93% 6.9 mph WNW11.1 kmh WNW 10.7 mph17.2 kmh 29.52 in999.7 mb 0.00 in0.0 mm 0.00 in0.0 mm 0.11 in2.8 mm
06:40 PM 62.6°F17.0°C 60.6°F15.9°C 93% 8.3 mph W13.4 kmh W 12.1 mph19.5 kmh 29.52 in999.7 mb 0.01 in0.3 mm 0.06 in1.5 mm 0.12 in3.0 mm
06:50 PM 62.1°F16.7°C 60.3°F15.7°C 94% 6.0 mph WNW9.7 kmh WNW 15.2 mph24.5 kmh 29.52 in999.7 mb 0.02 in0.5 mm 0.06 in1.5 mm 0.13 in3.3 mm
07:00 PM 61.5°F16.4°C 60.7°F15.9°C 97% 5.4 mph WNW8.7 kmh WNW 13.6 mph21.9 kmh 29.52 in999.7 mb 0.05 in1.3 mm 0.04 in1.0 mm 0.15 in3.8 mm
07:10 PM 61.2°F16.2°C 60.6°F15.9°C 98% 7.6 mph WNW12.2 kmh WNW 14.5 mph23.3 kmh 29.52 in999.7 mb 0.05 in1.3 mm 0.00 in0.0 mm 0.15 in3.8 mm
07:20 PM 61.0°F16.1°C 60.4°F15.8°C 98% 7.6 mph W12.2 kmh W 12.1 mph19.5 kmh 29.52 in999.7 mb 0.05 in1.3 mm 0.00 in0.0 mm 0.15 in3.8 mm
07:30 PM 60.6°F15.9°C 60.4°F15.8°C 99% 6.0 mph WNW9.7 kmh WNW 14.5 mph23.3 kmh 29.52 in999.7 mb 0.05 in1.3 mm 0.00 in0.0 mm 0.15 in3.8 mm
07:40 PM 60.6°F15.9°C 60.4°F15.8°C 99% 6.9 mph W11.1 kmh W 9.8 mph15.8 kmh 29.53 in1000.0 mb 0.04 in1.0 mm 0.00 in0.0 mm 0.15 in3.8 mm
07:50 PM 60.6°F15.9°C 60.4°F15.8°C 99% 2.2 mph WNW3.5 kmh WNW 9.8 mph15.8 kmh 29.53 in1000.0 mb 0.02 in0.5 mm 0.00 in0.0 mm 0.15 in3.8 mm
08:00 PM 61.0°F16.1°C 60.4°F15.8°C 98% 0.7 mph WSW1.1 kmh WSW 6.0 mph9.7 kmh 29.53 in1000.0 mb 0.00 in0.0 mm 0.00 in0.0 mm 0.15 in3.8 mm
08:10 PM 61.0°F16.1°C 60.4°F15.8°C 98% 4.5 mph SW7.2 kmh SW 7.6 mph12.2 kmh 29.53 in1000.0 mb 0.00 in0.0 mm 0.00 in0.0 mm 0.15 in3.8 mm
08:20 PM 61.0°F16.1°C 59.8°F15.4°C 96% 2.2 mph WSW3.5 kmh WSW 8.3 mph13.4 kmh 29.54 in1000.3 mb 0.00 in0.0 mm 0.00 in0.0 mm 0.15 in3.8 mm
08:30 PM 61.2°F16.2°C 60.0°F15.6°C 96% 5.4 mph SW8.7 kmh SW 6.0 mph9.7 kmh 29.54 in1000.3 mb 0.00 in0.0 mm 0.00 in0.0 mm 0.15 in3.8 mm
08:40 PM 61.3°F16.3°C 60.2°F15.7°C 96% 4.5 mph SW7.2 kmh SW 7.6 mph12.2 kmh 29.54 in1000.3 mb 0.00 in0.0 mm 0.00 in0.0 mm 0.15 in3.8 mm
08:50 PM 61.3°F16.3°C 59.9°F15.5°C 95% 4.5 mph WSW7.2 kmh WSW 9.2 mph14.8 kmh 29.54 in1000.3 mb 0.00 in0.0 mm 0.00 in0.0 mm 0.15 in3.8 mm
09:00 PM 61.2°F16.2°C 59.7°F15.4°C 95% 2.2 mph WSW3.5 kmh WSW 8.3 mph13.4 kmh 29.55 in1000.7 mb 0.00 in0.0 mm 0.00 in0.0 mm 0.15 in3.8 mm
09:10 PM 61.2°F16.2°C 59.7°F15.4°C 95% Calm Calm 6.9 mph11.1 kmh 29.54 in1000.3 mb 0.00 in0.0 mm 0.00 in0.0 mm 0.15 in3.8 mm
09:20 PM 61.2°F16.2°C 59.7°F15.4°C 95% 1.6 mph S2.6 kmh S 6.0 mph9.7 kmh 29.55 in1000.7 mb 0.00 in0.0 mm 0.00 in0.0 mm 0.15 in3.8 mm
09:30 PM 61.3°F16.3°C 60.2°F15.7°C 96% 5.4 mph W8.7 kmh W 10.7 mph17.2 kmh 29.54 in1000.3 mb 0.00 in0.0 mm 0.00 in0.0 mm 0.15 in3.8 mm
09:40 PM 61.3°F16.3°C 59.9°F15.5°C 95% 4.5 mph SW7.2 kmh SW 8.3 mph13.4 kmh 29.54 in1000.3 mb 0.00 in0.0 mm 0.00 in0.0 mm 0.15 in3.8 mm
09:50 PM 61.3°F16.3°C 59.6°F15.3°C 94% 3.8 mph WSW6.1 kmh WSW 9.2 mph14.8 kmh 29.54 in1000.3 mb 0.00 in0.0 mm 0.00 in0.0 mm 0.15 in3.8 mm
10:00 PM 61.3°F16.3°C 59.6°F15.3°C 94% 3.1 mph WSW5.0 kmh WSW 7.6 mph12.2 kmh 29.54 in1000.3 mb 0.00 in0.0 mm 0.00 in0.0 mm 0.15 in3.8 mm
10:10 PM 61.5°F16.4°C 59.8°F15.4°C 94% 2.2 mph WSW3.5 kmh WSW 9.2 mph14.8 kmh 29.55 in1000.7 mb 0.00 in0.0 mm 0.00 in0.0 mm 0.15 in3.8 mm
10:20 PM 61.5°F16.4°C 59.8°F15.4°C 94% 0.7 mph WSW1.1 kmh WSW 6.9 mph11.1 kmh 29.55 in1000.7 mb 0.00 in0.0 mm 0.00 in0.0 mm 0.15 in3.8 mm
10:30 PM 61.2°F16.2°C 59.7°F15.4°C 95% Calm Calm 3.1 mph5.0 kmh 29.55 in1000.7 mb 0.02 in0.5 mm 0.12 in3.0 mm 0.18 in4.6 mm
10:40 PM 60.6°F15.9°C 59.8°F15.4°C 97% Calm Calm 1.6 mph2.6 kmh 29.55 in1000.7 mb 0.05 in1.3 mm 0.18 in4.6 mm 0.20 in5.1 mm
10:50 PM 60.4°F15.8°C 60.2°F15.7°C 99% 0.7 mph NW1.1 kmh NW 3.1 mph5.0 kmh 29.55 in1000.7 mb 0.05 in1.3 mm 0.00 in0.0 mm 0.20 in5.1 mm
11:00 PM 60.3°F15.7°C 60.0°F15.6°C 99% 2.2 mph N3.5 kmh N 3.1 mph5.0 kmh 29.55 in1000.7 mb 0.05 in1.3 mm 0.00 in0.0 mm 0.19 in4.8 mm
11:10 PM 60.1°F15.6°C 59.8°F15.4°C 99% 2.2 mph NNW3.5 kmh NNW 5.4 mph8.7 kmh 29.55 in1000.7 mb 0.05 in1.3 mm 0.00 in0.0 mm 0.19 in4.8 mm
11:20 PM 60.1°F15.6°C 59.8°F15.4°C 99% 3.1 mph NW5.0 kmh NW 5.4 mph8.7 kmh 29.54 in1000.3 mb 0.04 in1.0 mm 0.00 in0.0 mm 0.01 in0.3 mm
11:30 PM 59.9°F15.5°C 59.6°F15.3°C 99% 1.6 mph NW2.6 kmh NW 3.8 mph6.1 kmh 29.54 in1000.3 mb 0.04 in1.0 mm 0.00 in0.0 mm 0.02 in0.5 mm
11:40 PM 59.9°F15.5°C 59.6°F15.3°C 99% Calm Calm 3.1 mph5.0 kmh 29.54 in1000.3 mb 0.02 in0.5 mm 0.00 in0.0 mm 0.02 in0.5 mm
11:50 PM 59.7°F15.4°C 59.5°F15.3°C 99% Calm Calm 1.6 mph2.6 kmh 29.53 in1000.0 mb 0.02 in0.5 mm 0.00 in0.0 mm 0.02 in0.5 mm